• Join FlightAware (Why Join?)
  • Login
  • US Flag 
Gobble Gobble! 
02:58PM EST


 

Airport Tracker/Info


-or-


 

Live Flight TrackerFlight Track Log ✈ KLM282 ✈ 15-May-2013 ✈ KSFO - EHAM / AMS

Flight Track Log - Related Links

Times and Time Zones

All times are in EDT time to prevent confusion due to time zone crossing. See the KLM282 flight status page for this flight to view local times or setup timezone preferences in your user account.

Time Position Orientation Groundspeed Altitude Reporting Facility
EDT Latitude Longitude Course Direction KTS MPH feet Rate Location/Type
05:37PM 37.6300 -122.4010 296° West 167 192 600  Level FlightAware
05:37PM 37.6400 -122.4080 331° Northwest 174 200 1,200 2,400 Climbing FlightAware
05:37PM 37.6490 -122.4080 360° North 187 215 1,600 1,680 Climbing FlightAware
05:38PM 37.6610 -122.3990 31° Northeast 212 244 1,900 1,800 Climbing FlightAware
05:38PM 37.6690 -122.3830 58° Northeast 216 249 2,500 1,980 Climbing FlightAware
05:38PM 37.6830 -122.3520 60° Northeast 219 252 3,400 1,440 Climbing FlightAware
05:39PM 37.6920 -122.3330 59° Northeast 236 272 3,600 1,020 Climbing FlightAware
05:39PM 37.7060 -122.3040 59° Northeast 257 296 4,100 1,200 Climbing FlightAware
05:40PM 37.7270 -122.2670 54° Northeast 275 316 4,700 1,680 Climbing FlightAware
05:40PM 37.7470 -122.2550 25° Northeast 274 315 5,400 2,520 Climbing FlightAware
05:40PM 37.7760 -122.2420 20° North 280 322 6,400 2,400 Climbing FlightAware
05:40PM 37.7950 -122.2310 25° Northeast 286 329 7,000 1,980 Climbing FlightAware
05:41PM 37.8290 -122.2000 36° Northeast 310 357 7,900 2,160 Climbing FlightAware
05:41PM 37.8560 -122.1730 38° Northeast 312 359 9,000 2,160 Climbing FlightAware
05:42PM 37.9020 -122.1270 38° Northeast 333 383 10,300 1,800 Climbing FlightAware
05:43PM 37.9400 -122.0870 40° Northeast 355 409 11,100 1,440 Climbing FlightAware
05:43PM 38.0010 -122.0220 40° Northeast 396 456 12,100 1,380 Climbing FlightAware
05:44PM 38.0580 -121.9640 39° Northeast 422 486 13,100 1,620 Climbing FlightAware
05:45PM 38.1210 -121.8960 40° Northeast 445 512 14,300 1,920 Climbing FlightAware
05:45PM 38.1920 -121.8210 40° Northeast 462 532 15,900 2,160 Climbing FlightAware
05:46PM 38.2580 -121.7500 40° Northeast 475 547 17,400 2,220 Climbing FlightAware
05:47PM 38.3390 -121.6650 39° Northeast 488 562 19,100 2,160 Climbing FlightAware
05:47PM 38.4100 -121.5880 40° Northeast 497 572 20,500 2,100 Climbing FlightAware
05:48PM 38.4850 -121.5220 35° Northeast 502 578 21,900 1,920 Climbing FlightAware
05:49PM 38.5620 -121.4590 33° Northeast 511 588 23,100 1,680 Climbing FlightAware
05:50PM 38.6530 -121.3840 33° Northeast 524 603 24,300 1,500 Climbing FlightAware
05:50PM 38.7450 -121.3070 33° Northeast 536 617 25,400 1,500 Climbing FlightAware
05:51PM 38.8290 -121.2370 33° Northeast 546 628 26,500 1,500 Climbing FlightAware
05:52PM 38.9150 -121.1650 33° Northeast 553 636 27,400 1,800 Climbing FlightAware
05:52PM 39.0120 -121.0820 34° Northeast 544 626 29,100 2,220 Climbing FlightAware
05:53PM 39.0950 -121.0120 33° Northeast 536 617 30,600 1,980 Climbing FlightAware
05:54PM 39.1790 -120.9420 33° Northeast 531 611 31,800 1,620 Climbing FlightAware
05:54PM 39.2600 -120.8720 34° Northeast 526 605 32,800 840 Climbing FlightAware
05:55PM 39.3490 -120.7960 33° Northeast 526 605 33,000 120 Climbing FlightAware
05:56PM 39.4310 -120.7260 33° Northeast 525 604 33,000  Level FlightAware
05:56PM 39.5080 -120.6600 33° Northeast 522 601 33,000  Level FlightAware
05:57PM 39.6320 -120.5530 34° Northeast 522 601 33,000  Level FlightAware
05:58PM 39.7120 -120.4830 34° Northeast 522 601 33,000  Level FlightAware
05:59PM 39.7920 -120.4140 34° Northeast 521 600 33,000  Level FlightAware
06:00PM 39.9120 -120.3080 34° Northeast 523 602 33,000  Level FlightAware
06:00PM 39.9880 -120.2440 33° Northeast 523 602 33,000  Level FlightAware
06:01PM 40.0880 -120.1560 34° Northeast 527 606 33,000  Level FlightAware
06:02PM 40.1930 -120.0650 33° Northeast 528 608 33,000  Level FlightAware
06:03PM 40.2550 -120.0100 34° Northeast 527 606 33,000  Level FlightAware
06:04PM 40.3620 -119.9160 34° Northeast 527 606 33,000  Level FlightAware
06:04PM 40.4440 -119.8440 34° Northeast 529 609 33,000  Level FlightAware
06:05PM 40.5340 -119.7650 34° Northeast 532 612 33,000  Level FlightAware
06:06PM 40.6200 -119.6890 34° Northeast 534 615 33,000  Level FlightAware
06:06PM 40.7030 -119.6140 34° Northeast 536 617 33,000  Level FlightAware
06:07PM 40.7860 -119.5400 34° Northeast 538 619 33,000  Level FlightAware
06:08PM 40.8670 -119.4680 34° Northeast 536 617 33,000  Level FlightAware
06:08PM 40.9570 -119.3870 34° Northeast 536 617 33,000  Level FlightAware
06:09PM 41.0400 -119.3110 35° Northeast 537 618 33,000  Level FlightAware
06:10PM 41.1280 -119.2320 34° Northeast 538 619 33,000  Level FlightAware
06:10PM 41.2150 -119.1530 34° Northeast 541 623 33,000  Level FlightAware
06:11PM 41.2930 -119.0830 34° Northeast 542 624 33,000  Level FlightAware
06:12PM 41.3640 -119.0190 34° Northeast 542 624 33,000  Level FlightAware
06:13PM 41.4690 -118.9210 35° Northeast 543 625 33,000  Level FlightAware
06:13PM 41.5430 -118.8540 34° Northeast 544 626 33,000  Level FlightAware
06:14PM 41.6360 -118.7670 35° Northeast 545 627 33,000  Level FlightAware
06:15PM 41.7070 -118.7010 35° Northeast 545 627 33,000  Level FlightAware
06:15PM 41.7770 -118.6350 35° Northeast 545 627 33,000  Level FlightAware
06:16PM 41.8650 -118.5530 35° Northeast 545 627 33,000  Level FlightAware
06:17PM 41.9350 -118.4870 35° Northeast 545 627 33,000  Level FlightAware
06:17PM 42.0050 -118.4200 35° Northeast 545 627 33,000  Level FlightAware
06:18PM 42.0750 -118.3540 35° Northeast 545 627 33,000  Level FlightAware
06:19PM 42.1460 -118.2880 35° Northeast 545 627 33,000  Level FlightAware
06:19PM 42.2160 -118.2220 35° Northeast 545 627 33,000  Level FlightAware
06:20PM 42.3030 -118.1380 36° Northeast 545 627 33,000  Level FlightAware
06:21PM 42.3740 -118.0720 34° Northeast 545 627 33,000  Level FlightAware
06:22PM 42.4440 -118.0050 35° Northeast 545 627 33,000  Level FlightAware
06:22PM 42.5140 -117.9390 35° Northeast 545 627 33,000  Level FlightAware
06:23PM 42.5840 -117.8720 35° Northeast 545 627 33,000  Level FlightAware
06:24PM 42.8125 -117.5367 35° Northeast 544 626 33,000  Level Salt Lake Center
06:25PM 42.9119 -117.3950 46° Northeast 543 625 33,000  Level Salt Lake Center
06:26PM 43.0253 -117.2250 48° Northeast 541 623 33,000  Level Salt Lake Center
06:27PM 43.1222 -117.0783 48° Northeast 542 624 33,000  Level Salt Lake Center
06:28PM 43.2369 -116.9067 47° Northeast 545 627 33,000  Level Salt Lake Center
06:29PM 43.3347 -116.7597 48° Northeast 546 628 33,000  Level Salt Lake Center
06:30PM 43.4311 -116.6136 48° Northeast 540 621 33,000  Level Salt Lake Center
06:31PM 43.5444 -116.4414 48° Northeast 543 625 33,000  Level Salt Lake Center
06:32PM 43.6419 -116.2928 48° Northeast 547 629 33,000  Level Salt Lake Center
06:33PM 43.7544 -116.1175 48° Northeast 547 629 33,000  Level Salt Lake Center
06:34PM 43.8517 -115.9683 48° Northeast 548 631 33,000  Level Salt Lake Center
06:35PM 43.9653 -115.7919 48° Northeast 552 635 33,000  Level Salt Lake Center
06:36PM 44.0608 -115.6386 49° Northeast 552 635 33,000  Level Salt Lake Center
06:37PM 44.1739 -115.4611 48° Northeast 553 636 33,000  Level Salt Lake Center
06:38PM 44.2706 -115.3081 49° Northeast 553 636 33,000  Level Salt Lake Center
06:39PM 44.3831 -115.1283 49° Northeast 553 636 33,000  Level Salt Lake Center
06:40PM 44.4797 -114.9736 49° Northeast 553 636 33,000  Level Salt Lake Center
06:41PM 44.5761 -114.8161 49° Northeast 556 640 33,000  Level Salt Lake Center
06:42PM 44.6883 -114.6350 49° Northeast 553 636 33,000  Level Salt Lake Center
06:43PM 44.7850 -114.4775 49° Northeast 555 639 33,000  Level Salt Lake Center
06:44PM 44.8964 -114.2939 49° Northeast 554 638 33,000  Level Salt Lake Center
06:45PM 44.9919 -114.1344 50° Northeast 555 639 33,000  Level Salt Lake Center
06:46PM 45.1111 -113.9583 46° Northeast 556 640 33,000 180 Level Salt Lake Center
06:47PM 45.2328 -113.8125 40° Northeast 551 634 33,400 780 Climbing Salt Lake Center
06:48PM 45.3531 -113.6644 41° Northeast 555 639 34,700 780 Climbing Salt Lake Center
06:49PM 45.4508 -113.5400 42° Northeast 553 636 35,000 120 Climbing Salt Lake Center
06:50PM 45.5867 -113.3614 43° Northeast 553 636 35,000  Level Salt Lake Center
06:52PM 45.7022 -113.2108 42° Northeast 558 642 35,000  Level Salt Lake Center
06:53PM 45.8158 -113.0614 42° Northeast 554 638 35,000  Level Salt Lake Center
06:54PM 45.9303 -112.9114 42° Northeast 555 639 35,000  Level Salt Lake Center
06:55PM 46.0456 -112.7606 42° Northeast 557 641 35,000  Level Salt Lake Center
06:56PM 46.1600 -112.6064 43° Northeast 560 644 35,000  Level Salt Lake Center
06:57PM 46.2733 -112.4539 43° Northeast 556 640 35,000  Level Salt Lake Center
06:58PM 46.3878 -112.3011 43° Northeast 557 641 35,000  Level Salt Lake Center
06:59PM 46.5039 -112.1439 43° Northeast 561 646 35,000  Level Salt Lake Center
07:00PM 46.6142 -111.9900 44° Northeast 556 640 35,000  Level Salt Lake Center
07:01PM 46.7486 -111.8083 43° Northeast 553 636 35,000  Level Salt Lake Center
07:02PM 46.8606 -111.6544 43° Northeast 554 638 35,000  Level Salt Lake Center
07:03PM 46.9711 -111.5011 43° Northeast 553 636 35,000  Level Salt Lake Center
07:04PM 47.0803 -111.3464 44° Northeast 551 634 35,000  Level Salt Lake Center
07:05PM 47.1908 -111.1914 44° Northeast 555 639 35,000  Level Salt Lake Center
07:06PM 47.3000 -111.0353 44° Northeast 556 640 35,000  Level Salt Lake Center
07:07PM 47.4328 -110.8475 44° Northeast 560 644 35,000  Level Salt Lake Center
07:08PM 47.5428 -110.6894 44° Northeast 560 644 35,000  Level Salt Lake Center
07:09PM 47.6536 -110.5314 44° Northeast 559 643 35,000  Level Salt Lake Center
07:10PM 47.7631 -110.3708 45° Northeast 559 643 35,000  Level Salt Lake Center
07:11PM 47.8736 -110.2106 44° Northeast 559 643 35,000  Level Salt Lake Center
07:12PM 48.0056 -110.0153 45° Northeast 559 643 35,000  Level Salt Lake Center
07:13PM 48.1167 -109.8519 44° Northeast 561 646 35,000  Level Salt Lake Center
07:14PM 48.2267 -109.6889 45° Northeast 559 643 35,000  Level Salt Lake Center
07:15PM 48.3361 -109.5225 45° Northeast 561 646 35,000  Level Salt Lake Center
07:16PM 48.4464 -109.3567 45° Northeast 562 647 35,000  Level Salt Lake Center
07:17PM 48.5569 -109.1903 45° Northeast 562 647 35,000  Level Salt Lake Center
07:18PM 48.6658 -109.0219 46° Northeast 563 648 35,000  Level Salt Lake Center
07:19PM 48.7953 -108.8189 46° Northeast 562 647 35,000  Level Salt Lake Center
07:20PM 48.9047 -108.6511 45° Northeast 561 646 35,000  Level Salt Lake Center
07:21PM 49.0000 -108.4500 54° Northeast 550 633 35,000  Level Edmonton Center
07:27PM 49.5160 -107.4370 54° Northeast 559 643 35,000  Level FlightAware
07:28PM 49.5810 -107.2990 54° Northeast 559 643 35,000  Level FlightAware
07:28PM 49.6390 -107.1770 54° Northeast 559 643 35,000  Level FlightAware
07:29PM 49.7190 -107.0030 55° Northeast 558 642 35,000  Level FlightAware
07:30PM 49.7750 -106.8830 54° Northeast 557 641 35,000  Level FlightAware
07:31PM 49.8410 -106.7400 54° Northeast 558 642 35,000  Level FlightAware
07:31PM 49.9080 -106.5970 54° Northeast 558 642 35,000  Level FlightAware
07:32PM 49.9560 -106.4930 54° Northeast 559 643 35,000  Level FlightAware
07:33PM 50.0260 -106.3390 55° Northeast 559 643 35,000  Level FlightAware
07:33PM 50.0960 -106.1850 55° Northeast 559 643 35,000  Level FlightAware
07:34PM 50.1520 -106.0600 55° Northeast 559 643 35,000  Level FlightAware
07:35PM 50.2140 -105.9240 54° Northeast 558 642 35,000  Level FlightAware
07:35PM 50.2720 -105.7930 55° Northeast 558 642 35,000  Level FlightAware
07:36PM 50.3470 -105.6240 55° Northeast 557 641 35,000  Level FlightAware
07:37PM 50.4070 -105.4890 55° Northeast 556 640 35,000  Level FlightAware
07:38PM 50.4600 -105.3690 55° Northeast 555 639 35,000  Level FlightAware
07:38PM 50.5260 -105.2160 56° Northeast 554 638 35,000  Level FlightAware
07:39PM 50.5780 -105.0970 55° Northeast 554 638 35,000  Level FlightAware
07:40PM 50.6370 -104.9600 56° Northeast 555 639 35,000  Level FlightAware
07:40PM 50.6990 -104.8160 56° Northeast 556 640 35,000  Level FlightAware
07:41PM 50.7580 -104.6690 58° Northeast 557 641 35,000  Level FlightAware
07:42PM 50.8280 -104.4950 57° Northeast 557 641 35,000  Level FlightAware
07:42PM 50.8640 -104.4090 56° Northeast 557 641 35,000  Level FlightAware
07:43PM 50.9440 -104.2100 57° Northeast 555 639 35,000  Level FlightAware
07:44PM 51.0030 -104.0630 57° Northeast 554 638 35,000  Level FlightAware
07:45PM 51.0510 -103.9460 57° Northeast 554 638 35,000  Level FlightAware
07:45PM 51.0980 -103.8300 57° Northeast 554 638 35,000  Level FlightAware
07:46PM 51.1580 -103.6840 57° Northeast 554 638 35,000  Level FlightAware
07:47PM 51.2050 -103.5680 57° Northeast 554 638 35,000  Level FlightAware
07:48PM 51.2520 -103.4510 57° Northeast 554 638 35,000  Level FlightAware
07:48PM 51.3000 -103.3340 57° Northeast 554 638 35,000  Level FlightAware
07:49PM 51.3590 -103.1880 57° Northeast 554 638 35,000  Level FlightAware
07:50PM 51.4070 -103.0710 57° Northeast 554 638 35,000  Level FlightAware
07:50PM 51.4540 -102.9540 57° Northeast 554 638 35,000  Level FlightAware
07:51PM 51.5010 -102.8360 57° Northeast 554 638 35,000  Level FlightAware
07:52PM 51.5490 -102.7190 57° Northeast 554 638 35,000  Level FlightAware
07:53PM 51.6080 -102.5720 57° Northeast 554 638 35,000  Level FlightAware
07:53PM 51.6560 -102.4540 57° Northeast 554 638 35,000  Level FlightAware
07:53PM 51.7833 -102.0333 57° Northeast 550 633 35,000  Level Winnipeg Center
07:54PM 51.8500 -101.8167 63° Northeast 550 633 35,000  Level Winnipeg Center
07:55PM 51.9167 -101.6000 63° Northeast 550 633 35,000  Level Winnipeg Center
07:56PM 52.0000 -101.4000 56° Northeast 540 621 35,000  Level Winnipeg Center
07:57PM 52.0833 -101.1833 58° Northeast 550 633 35,000  Level Winnipeg Center
07:58PM 52.1500 -100.9500 65° Northeast 540 621 35,000  Level Winnipeg Center
07:59PM 52.2333 -100.7333 58° Northeast 550 633 35,000  Level Winnipeg Center
08:00PM 52.3000 -100.5167 63° Northeast 540 621 35,000  Level Winnipeg Center
08:01PM 52.3833 -100.3167 56° Northeast 540 621 35,000  Level Winnipeg Center
08:02PM 52.4500 -100.1167 61° Northeast 540 621 35,000  Level Winnipeg Center
08:03PM 52.5167 -99.9167 61° Northeast 530 610 35,000  Level Winnipeg Center
08:04PM 52.6167 -99.7167 50° Northeast 530 610 35,000  Level Winnipeg Center
08:05PM 52.7000 -99.5000 58° Northeast 520 598 35,000  Level Winnipeg Center
08:06PM 52.7667 -99.3167 59° Northeast 520 598 35,000  Level Winnipeg Center
08:07PM 52.8500 -99.1000 57° Northeast 520 598 35,000  Level Winnipeg Center
08:08PM 52.9500 -98.9167 48° Northeast 520 598 35,000  Level Winnipeg Center
08:09PM 53.0167 -98.7167 61° Northeast 510 587 35,000  Level Winnipeg Center
08:10PM 53.1000 -98.5333 53° Northeast 510 587 35,000  Level Winnipeg Center
08:11PM 53.1667 -98.3000 64° Northeast 520 598 35,000  Level Winnipeg Center
08:12PM 53.2000 -98.1833 64° Northeast 520 598 35,000  Level Edmonton Center
08:12PM 53.2500 -98.1167 39° Northeast 510 587 35,000  Level Winnipeg Center
08:13PM 53.3333 -97.9167 55° Northeast 520 598 35,000  Level Winnipeg Center
08:14PM 53.4000 -97.7167 61° Northeast 520 598 35,000  Level Winnipeg Center
08:15PM 53.5000 -97.5000 52° Northeast 520 598 35,000  Level Winnipeg Center
08:16PM 53.5833 -97.3000 55° Northeast 510 587 35,000  Level Winnipeg Center
08:17PM 53.5833 -97.1667 90° East 510 587 35,000  Level Edmonton Center
08:17PM 53.6500 -97.1000 31° Northeast 510 587 35,000  Level Winnipeg Center
08:18PM 53.7333 -96.9000 55° Northeast 510 587 35,000  Level Winnipeg Center
08:19PM 53.8000 -96.7167 58° Northeast 510 587 35,000  Level Winnipeg Center
08:20PM 53.8833 -96.5167 55° Northeast 510 587 35,000  Level Winnipeg Center
08:21PM 53.9500 -96.2833 64° Northeast 500 575 35,000  Level Winnipeg Center
08:22PM 54.0333 -96.0833 55° Northeast 500 575 35,000  Level Winnipeg Center
08:23PM 54.1000 -95.8833 60° Northeast 510 587 35,000  Level Winnipeg Center
08:24PM 54.1667 -95.6833 60° Northeast 510 587 35,000  Level Winnipeg Center
08:25PM 54.2333 -95.4667 62° Northeast 510 587 35,000  Level Winnipeg Center
08:26PM 54.3167 -95.2667 54° Northeast 510 587 35,000  Level Winnipeg Center
08:27PM 54.3833 -95.0667 60° Northeast 510 587 35,000  Level Winnipeg Center
08:28PM 54.4000 -94.9333 78° East 500 575 35,000  Level Edmonton Center
08:28PM 54.4667 -94.8667 30° Northeast 500 575 35,000  Level Winnipeg Center
08:29PM 54.5333 -94.6500 62° Northeast 510 587 35,000  Level Winnipeg Center
08:30PM 54.6000 -94.4167 64° Northeast 500 575 35,000  Level Winnipeg Center
08:31PM 54.6667 -94.2500 55° Northeast 500 575 35,000  Level Winnipeg Center
08:32PM 54.6833 -94.1167 78° East 500 575 35,000  Level Edmonton Center
08:33PM 54.7500 -93.8833 64° Northeast 500 575 35,000  Level Edmonton Center
08:33PM 54.8167 -93.8333 23° Northeast 500 575 35,000  Level Winnipeg Center
08:34PM 54.8833 -93.5833 65° Northeast 500 575 35,000  Level Winnipeg Center
08:35PM 54.9000 -93.4833 74° East 490 564 35,000  Level Edmonton Center
08:36PM 54.9667 -93.2667 62° Northeast 500 575 35,000  Level Edmonton Center
08:37PM 55.0333 -93.0667 60° Northeast 500 575 35,000  Level Edmonton Center
08:37PM 55.0833 -92.9500 53° Northeast 500 575 35,000  Level Winnipeg Center
08:38PM 55.1667 -92.7500 54° Northeast 510 587 35,000  Level Winnipeg Center
08:39PM 55.2167 -92.5333 68° East 500 575 35,000  Level Winnipeg Center
08:40PM 55.2333 -92.4000 78° East 500 575 35,000  Level Edmonton Center
08:41PM 55.3000 -92.2000 60° Northeast 500 575 35,000  Level Edmonton Center
08:42PM 55.3833 -91.9833 56° Northeast 500 575 35,000  Level Edmonton Center
08:43PM 55.4500 -91.7500 63° Northeast 500 575 35,000  Level Edmonton Center
08:44PM 55.5000 -91.5500 66° East 490 564 35,000  Level Edmonton Center
08:45PM 55.5667 -91.3167 63° Northeast 500 575 35,000  Level Edmonton Center
08:46PM 55.6500 -91.1000 56° Northeast 500 575 35,000  Level Edmonton Center
08:47PM 55.7000 -90.9000 66° East 500 575 35,000  Level Edmonton Center
08:48PM 55.7667 -90.6500 65° Northeast 490 564 35,000  Level Edmonton Center
08:49PM 55.8167 -90.4500 66° East 490 564 35,000  Level Edmonton Center
08:49PM 55.8833 -90.3667 35° Northeast 500 575 35,000  Level Winnipeg Center
08:50PM 55.9500 -90.1333 63° Northeast 500 575 35,000  Level Winnipeg Center
08:51PM 55.9500 -90.0000 90° East 490 564 35,000  Level Edmonton Center
08:52PM 56.0167 -89.7833 61° Northeast 490 564 35,000  Level Edmonton Center
08:53PM 56.0833 -89.5833 59° Northeast 490 564 35,000  Level Edmonton Center
08:53PM 56.1333 -89.4833 48° Northeast 480 552 35,000  Level Winnipeg Center
08:54PM 56.2000 -89.2833 59° Northeast 490 564 35,000  Level Winnipeg Center
08:55PM 56.2667 -89.0500 63° Northeast 490 564 35,000  Level Winnipeg Center
08:56PM 56.3333 -88.8333 61° Northeast 490 564 35,000  Level Winnipeg Center
08:57PM 56.4000 -88.6000 63° Northeast 490 564 35,000  Level Winnipeg Center
08:58PM 56.4000 -88.5000 90° East 490 564 35,000  Level Edmonton Center
08:59PM 56.4667 -88.2833 61° Northeast 500 575 35,000  Level Edmonton Center
09:00PM 56.5167 -88.0333 70° East 490 564 35,000  Level Edmonton Center
09:01PM 56.6000 -87.8000 57° Northeast 490 564 35,000  Level Edmonton Center
09:02PM 56.6500 -87.5833 67° East 490 564 35,000  Level Edmonton Center
09:03PM 56.7167 -87.3667 61° Northeast 500 575 35,000  Level Edmonton Center
09:04PM 56.7833 -87.1500 61° Northeast 500 575 35,000  Level Edmonton Center
09:05PM 56.8500 -86.9167 62° Northeast 480 552 35,000  Level Edmonton Center
09:06PM 56.9000 -86.7000 67° East 500 575 35,000  Level Edmonton Center
09:07PM 56.9667 -86.4667 62° Northeast 490 564 35,000  Level Edmonton Center
09:08PM 57.0167 -86.2167 70° East 490 564 35,000  Level Edmonton Center
09:09PM 57.1000 -86.0000 55° Northeast 490 564 35,000  Level Edmonton Center
09:10PM 57.1500 -85.7667 68° East 480 552 35,000  Level Edmonton Center
09:11PM 57.2000 -85.5500 67° East 490 564 35,000  Level Edmonton Center
09:12PM 57.2667 -85.3167 62° Northeast 490 564 35,000  Level Edmonton Center
09:13PM 57.3167 -85.0833 68° East 500 575 35,000  Level Edmonton Center
09:14PM 57.3833 -84.8500 62° Northeast 500 575 35,000  Level Edmonton Center
09:15PM 57.4333 -84.6333 67° East 500 575 35,000  Level Edmonton Center
09:16PM 57.5000 -84.3667 65° Northeast 500 575 35,000  Level Edmonton Center
09:17PM 57.5333 -84.1333 75° East 500 575 35,000  Level Edmonton Center
09:18PM 57.6000 -83.9000 62° Northeast 490 564 35,000  Level Edmonton Center
09:19PM 57.6500 -83.6667 68° East 490 564 35,000  Level Edmonton Center
09:20PM 57.7167 -83.4333 62° Northeast 480 552 35,000  Level Edmonton Center
09:21PM 57.7667 -83.2000 68° East 490 564 35,000  Level Edmonton Center
09:22PM 57.8167 -82.9833 66° East 480 552 35,000  Level Edmonton Center
09:23PM 57.8833 -82.7333 63° Northeast 490 564 35,000  Level Edmonton Center
09:24PM 57.9167 -82.5000 75° East 490 564 35,000  Level Edmonton Center
09:25PM 57.9833 -82.2667 62° Northeast 490 564 35,000  Level Edmonton Center
09:26PM 58.0333 -82.0333 68° East 490 564 35,000  Level Edmonton Center
09:27PM 58.0833 -81.7833 69° East 500 575 35,000  Level Edmonton Center
09:28PM 58.1333 -81.5500 68° East 500 575 35,000  Level Edmonton Center
09:29PM 58.2000 -81.3000 63° Northeast 500 575 35,000  Level Edmonton Center
09:30PM 58.2333 -81.0500 76° East 500 575 35,000  Level Edmonton Center
09:31PM 58.2833 -80.8000 69° East 480 552 35,000  Level Edmonton Center
09:32PM 58.3333 -80.5667 68° East 500 575 35,000  Level Edmonton Center
09:33PM 58.3833 -80.3167 69° East 490 564 35,000  Level Edmonton Center
09:34PM 58.4500 -80.0667 63° Northeast 490 564 35,000  Level Edmonton Center
09:35PM 58.4833 -79.8333 75° East 500 575 35,000  Level Edmonton Center
09:36PM 58.5333 -79.5833 69° East 490 564 35,000  Level Edmonton Center
09:37PM 58.5667 -79.3000 77° East 490 564 35,000  Level Edmonton Center
09:38PM 58.6167 -79.1000 64° Northeast 490 564 35,000  Level Edmonton Center
09:39PM 58.6667 -78.8167 71° East 500 575 35,000  Level Edmonton Center
09:40PM 58.7167 -78.5667 69° East 500 575 35,000  Level Edmonton Center
09:41PM 58.7667 -78.3167 69° East 500 575 35,000  Level Edmonton Center
09:42PM 58.8167 -78.0667 69° East 500 575 35,000  Level Edmonton Center
09:43PM 58.8667 -77.7833 71° East 500 575 35,000  Level Edmonton Center
09:44PM 58.9000 -77.5333 75° East 500 575 35,000  Level Edmonton Center
09:45PM 58.9500 -77.2833 69° East 500 575 35,000  Level Edmonton Center
09:46PM 58.9833 -77.0333 75° East 490 564 35,000  Level Edmonton Center
09:47PM 59.0333 -76.7833 69° East 500 575 35,000  Level Edmonton Center
09:48PM 59.0667 -76.5333 75° East 500 575 35,000  Level Edmonton Center
09:49PM 59.1167 -76.2833 69° East 490 564 35,000  Level Edmonton Center
09:50PM 59.1667 -76.0167 70° East 500 575 35,000  Level Edmonton Center
09:51PM 59.1833 -75.7500 83° East 490 564 35,000  Level Edmonton Center
09:52PM 59.2333 -75.4833 70° East 490 564 35,000  Level Edmonton Center
09:53PM 59.2667 -75.2333 75° East 490 564 35,000  Level Edmonton Center
09:54PM 59.3167 -74.9667 70° East 490 564 35,000  Level Edmonton Center
09:55PM 59.3500 -74.7333 74° East 490 564 35,000  Level Edmonton Center
09:56PM 59.3833 -74.4667 76° East 500 575 35,000  Level Edmonton Center
09:57PM 59.4167 -74.2167 75° East 490 564 35,000  Level Edmonton Center
09:58PM 59.4833 -74.2167 360° North 490 564 35,000  Level Gander Center
09:59PM 59.5333 -73.9667 68° East 490 564 35,000  Level Gander Center
10:00PM 59.5667 -73.7167 75° East 490 564 35,000  Level Gander Center
10:01PM 59.6000 -73.4667 75° East 490 564 35,000  Level Gander Center
10:02PM 59.6333 -73.2000 76° East 490 564 35,000  Level Gander Center
10:03PM 59.6667 -72.9500 75° East 490 564 35,000  Level Gander Center
10:04PM 59.7000 -72.6667 77° East 490 564 35,000  Level Gander Center
10:05PM 59.7333 -72.4167 75° East 500 575 35,000  Level Gander Center
10:06PM 59.7667 -72.1167 77° East 490 564 35,000  Level Gander Center
10:07PM 59.8000 -71.8667 75° East 490 564 35,000  Level Gander Center
10:08PM 59.8333 -71.6000 76° East 490 564 35,000  Level Gander Center
10:09PM 59.8667 -71.3500 75° East 490 564 35,000  Level Gander Center
10:10PM 59.9000 -71.0833 76° East 500 575 35,000  Level Gander Center
10:11PM 59.9167 -70.8333 82° East 500 575 35,000  Level Gander Center
10:12PM 59.9500 -70.5667 76° East 500 575 35,000  Level Gander Center
10:13PM 59.9833 -70.3167 75° East 490 564 35,000  Level Gander Center
10:14PM 60.0000 -70.0500 83° East 480 552 35,000  Level Gander Center
10:15PM 60.0333 -69.7500 77° East 490 564 35,000  Level Gander Center
10:16PM 60.0667 -69.5000 75° East 490 564 35,000  Level Gander Center
10:17PM 60.0833 -69.2333 83° East 480 552 35,000  Level Gander Center
10:18PM 60.1167 -68.9667 76° East 480 552 35,000  Level Gander Center
10:19PM 60.1500 -68.7167 75° East 490 564 35,000  Level Gander Center
10:20PM 60.1667 -68.4500 83° East 500 575 35,000  Level Gander Center
10:21PM 60.2000 -68.1833 76° East 490 564 35,000  Level Gander Center
10:22PM 60.2333 -67.8833 77° East 490 564 35,000  Level Gander Center
10:23PM 60.2500 -67.6500 82° East 490 564 35,000  Level Gander Center
10:24PM 60.2667 -67.3500 83° East 490 564 35,000  Level Gander Center
10:25PM 60.3000 -67.0833 76° East 490 564 35,000  Level Gander Center
10:26PM 60.3167 -66.8333 82° East 490 564 35,000  Level Gander Center
10:27PM 60.3333 -66.5667 83° East 490 564 35,000  Level Gander Center
10:28PM 60.3667 -66.3000 76° East 500 575 35,000  Level Gander Center
10:29PM 60.3833 -66.0000 83° East 490 564 35,000  Level Gander Center
10:30PM 60.4000 -65.7333 83° East 500 575 35,000  Level Gander Center
10:31PM 60.4167 -65.4667 83° East 500 575 35,000  Level Gander Center
10:32PM 60.4500 -65.2000 76° East 500 575 35,000  Level Gander Center
10:33PM 60.4667 -64.8833 84° East 500 575 35,000  Level Gander Center
10:34PM 60.4833 -64.6167 83° East 500 575 35,000  Level Gander Center
10:35PM 60.5000 -64.3500 83° East 500 575 35,000  Level Gander Center
10:36PM 60.5167 -64.0833 83° East 500 575 35,000  Level Gander Center
10:37PM 60.5333 -63.7833 83° East 500 575 35,000  Level Gander Center
10:38PM 60.5500 -63.5167 83° East 490 564 35,000  Level Gander Center
10:39PM 60.5667 -63.2500 83° East 490 564 35,000  Level Gander Center
10:40PM 60.5667 -62.9667 90° East 490 564 35,000  Level Gander Center
10:41PM 60.6000 -62.7000 76° East 490 564 35,000  Level Gander Center
10:42PM 60.6333 -62.4333 76° East 490 564 35,000  Level Gander Center
10:43PM 60.6833 -62.1333 71° East 500 575 35,000  Level Gander Center
10:44PM 60.7167 -61.9000 74° East 500 575 35,000  Level Gander Center
10:45PM 60.7500 -61.6167 76° East 520 598 35,000  Level Gander Center
10:46PM 60.8000 -61.3500 69° East 510 587 35,000  Level Gander Center
10:47PM 60.8500 -61.0833 69° East 510 587 35,000  Level Gander Center
10:48PM 60.8833 -60.7667 78° East 510 587 35,000  Level Gander Center
10:49PM 60.9333 -60.5000 69° East 520 598 35,000  Level Gander Center
10:50PM 60.9833 -60.2167 70° East 520 598 35,000  Level Gander Center
10:51PM 61.0000 -59.9500 83° East 520 598 35,000  Level Gander Center
10:52PM 61.0167 -59.6333 84° East 510 587 35,000  Level Gander Center
10:53PM 61.0333 -59.3667 83° East 510 587 35,000  Level Gander Center
10:54PM 61.0500 -59.0500 84° East 510 587 35,000  Level Gander Center
10:55PM 61.0667 -58.7833 83° East 510 587 35,000  Level Gander Center
10:56PM 61.0500 -58.5000 97° East 510 587 35,000  Level Gander Center
10:57PM 61.0667 -58.2000 83° East 510 587 35,000  Level Gander Center
10:58PM 61.0667 -57.8833 90° East 510 587 35,000  Level Gander Center
10:59PM 61.0833 -57.6000 83° East 520 598 35,000  Level Gander Center
11:00PM 61.0833 -57.3000 90° East 520 598 35,000  Level Gander Center
11:01PM 61.1000 -57.0167 83° East 520 598 35,000  Level Gander Center
11:02PM 61.0833 -56.7167 96° East 520 598 35,000  Level Gander Center
11:03PM 61.1000 -56.4333 83° East 520 598 35,000  Level Gander Center
11:04PM 61.1000 -56.1167 90° East 520 598 35,000  Level Gander Center
11:05PM 61.1167 -55.8167 83° East 520 598 35,000  Level Gander Center
11:06PM 61.1167 -55.5333 90° East 520 598 35,000  Level Gander Center
11:07PM 61.1000 -55.2333 96° East 520 598 35,000  Level Gander Center
11:08PM 61.1000 -54.9167 90° East 520 598 35,000  Level Gander Center
11:09PM 61.1000 -54.6333 90° East 520 598 35,000  Level Gander Center
11:10PM 61.1167 -54.3333 83° East 520 598 35,000  Level Gander Center
11:11PM 61.1167 -54.0167 90° East 530 610 35,000  Level Gander Center
11:12PM 61.1000 -53.7167 96° East 530 610 35,000  Level Gander Center
11:13PM 61.1000 -53.4000 90° East 530 610 35,000  Level Gander Center
11:14PM 61.1000 -53.1333 90° East 540 621 35,000  Level Gander Center
11:15PM 61.1000 -52.7833 90° East 540 621 35,000  Level Gander Center
11:16PM 61.0833 -52.4667 96° East 540 621 35,000  Level Gander Center
11:17PM 61.0667 -52.1667 96° East 540 621 35,000  Level Gander Center
11:18PM 61.0667 -51.8500 90° East 550 633 35,000  Level Gander Center
11:19PM 61.0667 -51.5500 90° East 550 633 35,000  Level Gander Center
11:20PM 61.0500 -51.2333 96° East 550 633 35,000  Level Gander Center
11:21PM 61.0500 -50.9167 90° East 550 633 35,000  Level Gander Center
11:22PM 61.0333 -50.6167 96° East 550 633 35,000  Level Gander Center
11:23PM 61.0167 -50.3167 96° East 550 633 35,000  Level Gander Center
11:24PM 61.0167 -49.9667 90° East 550 633 35,000  Level Gander Center
11:25PM 61.0167 -49.6500 90° East 560 644 35,000  Level Gander Center
11:26PM 61.0333 -49.3333 84° East 570 656 35,000  Level Gander Center
11:27PM 61.0333 -49.0167 90° East 570 656 35,000  Level Gander Center
11:28PM 61.0500 -48.7000 84° East 570 656 35,000  Level Gander Center
11:29PM 61.0667 -48.3833 84° East 570 656 35,000  Level Gander Center
11:30PM 61.0667 -48.0667 90° East 570 656 35,000  Level Gander Center
11:31PM 61.0667 -47.7167 90° East 570 656 35,000  Level Gander Center
11:32PM 61.0833 -47.4000 84° East 580 667 35,000  Level Gander Center
11:33PM 61.0833 -47.0833 90° East 580 667 35,000  Level Gander Center
11:34PM 61.0833 -46.7333 90° East 580 667 35,000  Level Gander Center
11:35PM 61.1000 -46.4167 84° East 580 667 35,000  Level Gander Center
11:36PM 61.1000 -46.0667 90° East 590 679 35,000  Level Gander Center
11:37PM 61.1000 -45.7167 90° East 590 679 35,000  Level Gander Center
11:38PM 61.1000 -45.4000 90° East 590 679 35,000  Level Gander Center
11:39PM 61.1000 -45.0500 90° East 590 679 35,000  Level Gander Center
11:40PM 61.1000 -44.7333 90° East 590 679 35,000  Level Gander Center
11:41PM 61.0833 -44.3833 95° East 590 679 35,000  Level Gander Center
11:42PM 61.1000 -44.0333 84° East 590 679 35,000  Level Gander Center
11:43PM 61.0833 -43.7167 96° East 600 690 35,000  Level Gander Center
11:44PM 61.0833 -43.3667 90° East 590 679 35,000  Level Gander Center
11:45PM 61.0833 -43.0500 90° East 600 690 35,000  Level Gander Center
11:46PM 61.0833 -42.7000 90° East 600 690 35,000  Level Gander Center
11:47PM 61.0667 -42.3500 95° East 590 679 35,000  Level Gander Center
11:48PM 61.0667 -42.0333 90° East 600 690 35,000  Level Gander Center
11:49PM 61.0500 -41.6833 95° East 590 679 35,000  Level Gander Center
11:50PM 61.0500 -41.3333 90° East 600 690 35,000  Level Gander Center
11:51PM 61.0500 -41.0167 90° East 600 690 35,000  Level Gander Center
11:52PM 61.0333 -40.6667 95° East 600 690 35,000  Level Gander Center
11:53PM 61.0167 -40.3333 96° East 600 690 35,000  Level Gander Center
11:54PM 61.0167 -39.9833 90° East 600 690 35,000  Level Gander Center
11:55PM 61.0000 -39.6667 96° East 600 690 35,000  Level Gander Center
11:56PM 60.9667 -39.3167 101° East 600 690 35,000  Level Gander Center
11:57PM 60.9333 -38.9833 101° East 600 690 35,000  Level Gander Center
11:58PM 60.9167 -38.6500 96° East 600 690 35,000  Level Gander Center
11:59PM 60.9000 -38.3000 95° East 600 690 35,000  Level Gander Center
12:00AM 60.8667 -37.9667 101° East 600 690 35,000  Level Gander Center
12:01AM 60.8500 -37.6333 96° East 600 690 35,000  Level Gander Center
12:02AM 60.8167 -37.2833 101° East 600 690 35,000  Level Gander Center
12:03AM 60.8000 -36.9833 96° East 600 690 35,000  Level Gander Center
12:04AM 60.7500 -36.6500 107° East 600 690 35,000  Level Gander Center
12:05AM 60.7333 -36.3167 96° East 600 690 35,000  Level Gander Center
12:06AM 60.7000 -35.9833 101° East 600 690 35,000  Level Gander Center
12:07AM 60.6667 -35.6500 101° East 600 690 35,000  Level Gander Center
12:08AM 60.6500 -35.3167 96° East 610 702 35,000  Level Gander Center
12:09AM 60.6167 -34.9833 101° East 600 690 35,000  Level Gander Center
12:10AM 60.5667 -34.5833 104° East 560 644 35,000  Level Gander Center
12:11AM 60.5500 -34.2833 96° East 590 679 35,000  Level Gander Center
12:13AM 60.4995 -33.8338 103° East  Level FlightAware Approximate
12:20AM 60.2586 -31.8638 103° East  Level FlightAware Approximate
12:21AM 60.2218 -31.5848 105° East  Level FlightAware Approximate
12:22AM 60.1844 -31.3064 105° East  Level FlightAware Approximate
12:23AM 60.1465 -31.0287 105° East  Level FlightAware Approximate
12:24AM 60.1079 -30.7516 105° East  Level FlightAware Approximate
12:25AM 60.0688 -30.4752 106° East  Level FlightAware Approximate
12:26AM 60.0291 -30.1994 106° East  Level FlightAware Approximate
12:27AM 59.9885 -29.9241 107° East  Level FlightAware Approximate
12:28AM 59.9464 -29.6504 107° East  Level FlightAware Approximate
12:29AM 59.9038 -29.3775 107° East  Level FlightAware Approximate
12:30AM 59.8606 -29.1052 107° East  Level FlightAware Approximate
12:31AM 59.8169 -28.8336 108° East  Level FlightAware Approximate
12:32AM 59.7726 -28.5627 108° East  Level FlightAware Approximate
12:33AM 59.7277 -28.2926 108° East  Level FlightAware Approximate
12:34AM 59.6823 -28.0232 108° East  Level FlightAware Approximate
12:35AM 59.6363 -27.7545 109° East  Level FlightAware Approximate
12:36AM 59.5898 -27.4866 109° East  Level FlightAware Approximate
12:37AM 59.5428 -27.2194 109° East  Level FlightAware Approximate
12:38AM 59.4952 -26.9529 109° East  Level FlightAware Approximate
12:39AM 59.4470 -26.6872 110° East  Level FlightAware Approximate
12:40AM 59.3984 -26.4223 110° East  Level FlightAware Approximate
12:41AM 59.3492 -26.1581 110° East  Level FlightAware Approximate
12:42AM 59.2994 -25.8948 110° East  Level FlightAware Approximate
12:43AM 59.2491 -25.6321 110° East  Level FlightAware Approximate
12:44AM 59.1983 -25.3703 111° Southeast  Level FlightAware Approximate
12:45AM 59.1470 -25.1092 111° Southeast  Level FlightAware Approximate
12:46AM 59.0952 -24.8490 111° Southeast  Level FlightAware Approximate
12:47AM 59.0428 -24.5895 111° Southeast  Level FlightAware Approximate
12:48AM 58.9899 -24.3308 112° Southeast  Level FlightAware Approximate
12:49AM 58.9365 -24.0729 112° Southeast  Level FlightAware Approximate
12:50AM 58.8826 -23.8158 112° Southeast  Level FlightAware Approximate
12:51AM 58.8282 -23.5595 112° Southeast  Level FlightAware Approximate
12:52AM 58.7733 -23.3040 112° Southeast  Level FlightAware Approximate
12:53AM 58.7178 -23.0493 113° Southeast  Level FlightAware Approximate
12:54AM 58.6619 -22.7955 113° Southeast  Level FlightAware Approximate
12:55AM 58.6055 -22.5424 113° Southeast  Level FlightAware Approximate
12:56AM 58.5486 -22.2902 113° Southeast  Level FlightAware Approximate
12:57AM 58.4912 -22.0388 114° Southeast  Level FlightAware Approximate
12:58AM 58.4333 -21.7882 114° Southeast  Level FlightAware Approximate
12:59AM 58.3749 -21.5384 114° Southeast  Level FlightAware Approximate
01:00AM 58.3160 -21.2895 114° Southeast  Level FlightAware Approximate
01:01AM 58.2566 -21.0414 114° Southeast  Level FlightAware Approximate
01:02AM 58.1968 -20.7942 115° Southeast  Level FlightAware Approximate
01:03AM 58.1365 -20.5477 115° Southeast  Level FlightAware Approximate
01:04AM 58.0757 -20.3021 115° Southeast  Level FlightAware Approximate
01:05AM 58.0145 -20.0574 115° Southeast  Level FlightAware Approximate
01:06AM 57.9781 -19.7974 101° East  Level FlightAware Approximate
01:07AM 57.9491 -19.5329 102° East  Level FlightAware Approximate
01:08AM 57.9195 -19.2688 102° East  Level FlightAware Approximate
01:09AM 57.8894 -19.0051 102° East  Level FlightAware Approximate
01:10AM 57.8587 -18.7419 102° East  Level FlightAware Approximate
01:11AM 57.8274 -18.4792 102° East  Level FlightAware Approximate
01:12AM 57.7957 -18.2169 103° East  Level FlightAware Approximate
01:13AM 57.7634 -17.9551 103° East  Level FlightAware Approximate
01:14AM 57.7305 -17.6937 103° East  Level FlightAware Approximate
01:15AM 57.6971 -17.4329 103° East  Level FlightAware Approximate
01:16AM 57.6632 -17.1725 104° East  Level FlightAware Approximate
01:17AM 57.6287 -16.9126 104° East  Level FlightAware Approximate
01:18AM 57.5938 -16.6532 104° East  Level FlightAware Approximate
01:19AM 57.5582 -16.3943 104° East  Level FlightAware Approximate
01:20AM 57.5222 -16.1359 104° East  Level FlightAware Approximate
01:21AM 57.4856 -15.8780 105° East  Level FlightAware Approximate
01:22AM 57.4485 -15.6206 105° East  Level FlightAware Approximate
01:23AM 57.4109 -15.3638 105° East  Level FlightAware Approximate
01:24AM 57.3727 -15.1075 105° East  Level FlightAware Approximate
01:25AM 57.3341 -14.8517 106° East  Level FlightAware Approximate
01:26AM 57.2949 -14.5965 106° East  Level FlightAware Approximate
01:27AM 57.2552 -14.3418 106° East  Level FlightAware Approximate
01:28AM 57.2150 -14.0877 106° East  Level FlightAware Approximate
01:29AM 57.1743 -13.8341 106° East  Level FlightAware Approximate
01:30AM 57.1330 -13.5811 107° East  Level FlightAware Approximate
01:31AM 57.0913 -13.3287 107° East  Level FlightAware Approximate
01:32AM 57.0490 -13.0768 107° East  Level FlightAware Approximate
01:32AM 56.6520 -11.2880 107° East 506 582 36,000  Level FlightAware
01:33AM 57.0063 -12.8255 107° East  Level FlightAware Approximate
01:34AM 56.9630 -12.5748 107° East  Level FlightAware Approximate
01:34AM 56.6060 -10.8810 101° East 506 582 36,000  Level FlightAware
01:35AM 56.5900 -10.7480 102° East 506 582 36,000  Level FlightAware
01:35AM 56.5660 -10.5450 102° East 506 582 36,000  Level FlightAware
01:36AM 56.5470 -10.4010 103° East 504 580 36,000  Level FlightAware
01:37AM 56.5190 -10.1950 104° East 503 579 36,000  Level FlightAware
01:38AM 56.4960 -10.0270 104° East 504 580 36,000 180 Level FlightAware
01:38AM 56.4710 -9.8430 104° East 499 574 36,300 420 Climbing FlightAware
01:39AM 56.4480 -9.6770 104° East 500 575 36,600 480 Climbing FlightAware
01:40AM 56.4280 -9.5310 104° East 502 578 36,900 240 Climbing FlightAware
01:40AM 56.3990 -9.3310 105° East 503 579 37,000 60 Climbing FlightAware
01:41AM 56.3740 -9.1510 104° East 504 580 37,000 -1,200 Level FlightAware
01:42AM 56.3535 -9.0030 104° East 502 578 35,500  Descending FlightAware UK
01:42AM 56.3500 -8.9880 104° East 505 581 37,000  Climbing FlightAware
01:42AM 56.3386 -8.9059 104° East 500 575 35,500 -2,760 Descending FlightAware UK
01:42AM 56.3279 -8.8328 105° East 500 575 35,500  Level FlightAware UK
01:43AM 56.3171 -8.7590 105° East 504 580 35,500  Level FlightAware UK
01:43AM 56.3064 -8.6860 105° East 500 575 35,500  Level FlightAware UK
01:43AM 56.2958 -8.6129 105° East 500 575 35,500  Level FlightAware UK
01:44AM 56.2851 -8.5402 105° East 502 578 35,500  Level FlightAware UK
01:44AM 56.2742 -8.4676 105° East 498 573 35,500  Level FlightAware UK
01:44AM 56.2632 -8.3954 105° East 500 575 35,500  Level FlightAware UK
01:44AM 56.2521 -8.3232 105° East 500 575 35,500  Level FlightAware UK
01:45AM 56.2412 -8.2509 105° East 498 573 35,500  Level FlightAware UK
01:45AM 56.2302 -8.1786 105° East 498 573 35,500  Level FlightAware UK
01:45AM 56.2192 -8.1063 105° East 498 573 35,500  Level FlightAware UK
01:46AM 56.2083 -8.0338 105° East 500 575 35,500  Level FlightAware UK
01:46AM 56.1973 -7.9614 105° East 498 573 35,500  Level FlightAware UK
01:46AM 56.1860 -7.8891 106° East 498 573 35,500  Level FlightAware UK
01:47AM 56.1747 -7.8169 106° East 500 575 35,500  Level FlightAware UK
01:47AM 56.1634 -7.7447 106° East 500 575 35,500  Level FlightAware UK
01:47AM 56.1521 -7.6724 106° East 500 575 35,500  Level FlightAware UK
01:47AM 56.1407 -7.6001 106° East 500 575 35,500  Level FlightAware UK
01:48AM 56.1292 -7.5278 106° East 500 575 35,500  Level FlightAware UK
01:48AM 56.1177 -7.4548 106° East 498 573 35,500 2,700 Level FlightAware UK
01:48AM 56.1150 -7.4410 106° East 504 580 37,000  Climbing FlightAware
01:49AM 56.0985 -7.3346 106° East 502 578 35,500 -2,700 Descending FlightAware UK
01:49AM 56.0868 -7.2625 106° East 500 575 35,500 3,060 Level FlightAware UK
01:49AM 56.0820 -7.2370 106° East 503 579 37,000  Climbing FlightAware
01:49AM 56.0674 -7.1428 106° East 502 578 35,500 -2,460 Descending FlightAware UK
01:50AM 56.0558 -7.0710 106° East 502 578 35,500 4,260 Level FlightAware UK
01:50AM 56.0570 -7.0820 106° East 502 578 37,000  Climbing FlightAware
01:50AM 56.0441 -6.9994 106° East 500 575 35,500 -2,760 Descending FlightAware UK
01:50AM 56.0323 -6.9279 106° East 500 575 35,500 3,000 Level FlightAware UK
01:50AM 56.0270 -6.8990 106° East 502 578 37,000  Climbing FlightAware
01:51AM 56.0128 -6.8088 106° East 498 573 35,500 -2,520 Descending FlightAware UK
01:51AM 56.0009 -6.7375 107° East 496 571 35,500 4,080 Level FlightAware UK
01:51AM 56.0010 -6.7400 107° East 502 578 37,000  Climbing FlightAware
01:51AM 55.9850 -6.6424 107° East 498 573 35,500 -2,400 Descending FlightAware UK
01:52AM 55.9732 -6.5710 106° East 496 571 35,500 3,600 Level FlightAware UK
01:52AM 55.9700 -6.5570 106° East 503 579 37,000  Climbing FlightAware
01:52AM 55.9572 -6.4758 106° East 500 575 35,500 -2,580 Descending FlightAware UK
01:52AM 55.9451 -6.4045 107° East 500 575 35,500 3,900 Level FlightAware UK
01:53AM 55.9430 -6.3950 107° East 502 578 37,000  Climbing FlightAware
01:53AM 55.9289 -6.3095 107° East 498 573 35,500 -2,460 Descending FlightAware UK
01:53AM 55.9167 -6.2384 107° East 500 575 35,500 4,260 Level FlightAware UK
01:53AM 55.9160 -6.2330 107° East 501 577 37,000  Climbing FlightAware
01:53AM 55.9046 -6.1673 107° East 500 575 35,500 -2,760 Descending FlightAware UK
01:54AM 55.8923 -6.0956 107° East 500 575 35,500  Level FlightAware UK
01:54AM 55.8800 -6.0248 107° East 498 573 35,500  Level FlightAware UK
01:54AM 55.8678 -5.9540 107° East 498 573 35,500  Level FlightAware UK
01:55AM 55.8554 -5.8832 107° East 498 573 35,500  Level FlightAware UK
01:55AM 55.8430 -5.8125 107° East 498 573 35,500  Level FlightAware UK
01:55AM 55.8306 -5.7419 107° East 498 573 35,500 2,520 Level FlightAware UK
01:56AM 55.8230 -5.7020 107° East 500 575 37,000  Climbing FlightAware
01:56AM 55.8057 -5.6008 107° East 500 575 35,500 -2,460 Descending FlightAware UK
01:56AM 55.7932 -5.5303 107° East 502 578 35,500 3,420 Level FlightAware UK
01:56AM 55.7890 -5.5090 107° East 500 575 37,000  Climbing FlightAware
01:57AM 55.7766 -5.4365 107° East 500 575 35,500 -2,700 Descending FlightAware UK
01:57AM 55.7642 -5.3663 107° East 500 575 35,500 3,720 Level FlightAware UK
01:57AM 55.7620 -5.3580 107° East 498 573 37,000  Climbing FlightAware
01:57AM 55.7474 -5.2730 107° East 500 575 35,500 -2,520 Descending FlightAware UK
01:58AM 55.7348 -5.2031 108° East 496 571 35,500 4,080 Level FlightAware UK
01:58AM 55.7340 -5.2020 108° East 498 573 37,000  Climbing FlightAware
01:58AM 55.7180 -5.1100 108° East 506 582 35,500 -2,400 Descending FlightAware UK
01:58AM 55.7053 -5.0402 108° East 504 580 35,500 3,600 Level FlightAware UK
01:58AM 55.7010 -5.0200 108° East 497 572 37,000  Climbing FlightAware
01:59AM 55.6883 -4.9474 108° East 502 578 35,500 -2,580 Descending FlightAware UK
01:59AM 55.6755 -4.8772 108° East 500 575 35,500 3,180 Level FlightAware UK
01:59AM 55.6700 -4.8470 108° East 495 570 37,000  Climbing FlightAware
01:59AM 55.6543 -4.7620 108° East 504 580 35,500  Descending FlightAware UK
02:00AM 55.6420 -4.6970 108° East 492 566 37,000  Climbing FlightAware
02:00AM 55.6268 -4.6266 108° East 500 575 35,500 -2,700 Descending FlightAware UK
02:00AM 55.6073 -4.5633 119° Southeast 500 575 35,500  Level FlightAware UK
02:01AM 55.5869 -4.5011 120° Southeast 500 575 35,500  Level FlightAware UK
02:01AM 55.5657 -4.4406 122° Southeast 500 575 35,500  Level FlightAware UK
02:01AM 55.5437 -4.3805 123° Southeast 496 571 35,500  Level FlightAware UK
02:02AM 55.5218 -4.3203 123° Southeast 494 568 35,500 2,400 Level FlightAware UK
02:02AM 55.5070 -4.2800 123° Southeast 486 559 37,000  Climbing FlightAware
02:02AM 55.4780 -4.2005 123° Southeast 494 568 35,500 -2,580 Descending FlightAware UK
02:02AM 55.4561 -4.1405 123° Southeast 496 571 35,500  Level FlightAware UK
02:03AM 55.4339 -4.0798 123° Southeast 502 578 35,500  Level FlightAware UK
02:03AM 55.4121 -4.0199 123° Southeast 502 578 35,500 2,760 Level FlightAware UK
02:03AM 55.4040 -3.9970 123° Southeast 485 558 37,000  Climbing FlightAware
02:04AM 55.3756 -3.9205 123° Southeast 500 575 35,500 -2,700 Descending FlightAware UK
02:04AM 55.3538 -3.8609 123° Southeast 500 575 35,500 3,720 Level FlightAware UK
02:04AM 55.3530 -3.8580 123° Southeast 484 557 37,000  Climbing FlightAware
02:04AM 55.3250 -3.7814 123° Southeast 498 573 35,500 -2,520 Descending FlightAware UK
02:05AM 55.3032 -3.7224 123° Southeast 502 578 35,500 3,300 Level FlightAware UK
02:05AM 55.2950 -3.7030 123° Southeast 483 556 37,000  Climbing FlightAware
02:05AM 55.2741 -3.6435 123° Southeast 500 575 35,500 -2,760 Descending FlightAware UK
02:05AM 55.2522 -3.5846 123° Southeast 500 575 35,500 3,600 Level FlightAware UK
02:05AM 55.2470 -3.5720 123° Southeast 482 555 37,000  Climbing FlightAware
02:06AM 55.2232 -3.5065 123° Southeast 500 575 35,500 -2,580 Descending FlightAware UK
02:06AM 55.2012 -3.4473 123° Southeast 498 573 35,500 3,900 Level FlightAware UK
02:06AM 55.1990 -3.4450 123° Southeast 480 552 37,000  Climbing FlightAware
02:06AM 55.1722 -3.3690 123° Southeast 498 573 35,500 -2,460 Descending FlightAware UK
02:07AM 55.1505 -3.3104 123° Southeast 496 571 35,500 3,420 Level FlightAware UK
02:07AM 55.1480 -3.3050 123° Southeast 480 552 37,000  Climbing FlightAware
02:07AM 55.1140 -3.2133 123° Southeast 494 568 35,500  Descending FlightAware UK
02:07AM 55.1070 -3.1950 123° Southeast 480 552 37,000  Climbing FlightAware
02:08AM 55.0771 -3.1158 123° Southeast 494 568 35,500 -2,520 Descending FlightAware UK
02:08AM 55.0551 -3.0575 123° Southeast 496 571 35,500 3,300 Level FlightAware UK
02:08AM 55.0460 -3.0340 123° Southeast 482 555 37,000  Climbing FlightAware
02:09AM 55.0035 -2.9218 123° Southeast 496 571 35,500  Descending FlightAware UK
02:09AM 54.9910 -2.8910 123° Southeast 482 555 37,000  Climbing FlightAware
02:09AM 54.9664 -2.8242 123° Southeast 496 571 35,500  Descending FlightAware UK
02:10AM 54.9350 -2.7430 123° Southeast 483 556 37,000  Climbing FlightAware
02:10AM 54.8994 -2.6501 123° Southeast 496 571 35,500  Descending FlightAware UK
02:10AM 54.8870 -2.6170 123° Southeast 484 557 37,000  Climbing FlightAware
02:11AM 54.8621 -2.5533 123° Southeast 496 571 35,500 -2,580 Descending FlightAware UK
02:11AM 54.8394 -2.4947 124° Southeast 496 571 35,500 3,900 Level FlightAware UK
02:11AM 54.8370 -2.4880 124° Southeast 485 558 37,000  Climbing FlightAware
02:11AM 54.8020 -2.3978 124° Southeast 500 575 35,500  Descending FlightAware UK
02:12AM 54.7790 -2.3430 124° Southeast 486 559 37,000 1,500 Climbing FlightAware
02:12AM 54.7240 -2.2170 127° Southeast 484 557 37,000 -1,200 Level FlightAware
02:13AM 54.6694 -2.1042 127° Southeast 500 575 35,500  Descending FlightAware UK
02:13AM 54.6690 -2.1050 127° Southeast 484 557 37,000  Climbing FlightAware
02:13AM 54.6335 -2.0344 127° Southeast 502 578 35,500 -2,400 Descending FlightAware UK
02:14AM 54.6067 -1.9836 132° Southeast 502 578 35,500 3,600 Level FlightAware UK
02:14AM 54.5990 -1.9700 132° Southeast 483 556 37,000  Climbing FlightAware
02:14AM 54.5615 -1.8974 132° Southeast 500 575 35,500  Descending FlightAware UK
02:14AM 54.5390 -1.8550 132° Southeast 482 555 37,000  Climbing FlightAware
02:15AM 54.4992 -1.7771 132° Southeast 498 573 35,500  Descending FlightAware UK
02:15AM 54.4730 -1.7260 132° Southeast 483 556 37,000  Climbing FlightAware
02:16AM 54.4192 -1.6217 132° Southeast 496 571 35,500  Descending FlightAware UK
02:16AM 54.4160 -1.6170 132° Southeast 482 555 37,000  Climbing FlightAware
02:16AM 54.3840 -1.5527 132° Southeast 496 571 35,500  Descending FlightAware UK
02:17AM 54.3550 -1.5000 132° Southeast 484 557 37,000  Climbing FlightAware
02:17AM 54.3125 -1.3864 132° Southeast 502 578 35,500  Descending FlightAware UK
02:17AM 54.3020 -1.3590 132° Southeast 486 559 37,000  Climbing FlightAware
02:18AM 54.2774 -1.2869 132° Southeast 500 575 35,500 -2,520 Descending FlightAware UK
02:18AM 54.2565 -1.2278 121° Southeast 498 573 35,500 4,080 Level FlightAware UK
02:18AM 54.2530 -1.2210 121° Southeast 485 558 37,000  Climbing FlightAware
02:18AM 54.2283 -1.1495 121° Southeast 500 575 35,500 -2,400 Descending FlightAware UK
02:19AM 54.2071 -1.0909 122° Southeast 498 573 35,500 3,600 Level FlightAware UK
02:19AM 54.2020 -1.0780 122° Southeast 485 558 37,000  Climbing FlightAware
02:19AM 54.1709 -0.9933 122° Southeast 500 575 35,500  Descending FlightAware UK
02:19AM 54.1530 -0.9490 122° Southeast 482 555 37,000  Climbing FlightAware
02:20AM 54.1203 -0.8591 122° Southeast 498 573 35,500  Descending FlightAware UK
02:20AM 54.1070 -0.8240 122° Southeast 482 555 37,000  Climbing FlightAware
02:21AM 54.0623 -0.7052 122° Southeast 496 571 35,500  Descending FlightAware UK
02:21AM 54.0570 -0.6930 122° Southeast 482 555 37,000  Climbing FlightAware
02:21AM 54.0118 -0.5713 122° Southeast 496 571 35,500  Descending FlightAware UK
02:21AM 54.0010 -0.5460 122° Southeast 483 556 37,000  Climbing FlightAware
02:22AM 53.9755 -0.4757 122° Southeast 494 568 35,500 -2,400 Descending FlightAware UK
02:22AM 53.9536 -0.4177 123° Southeast 496 571 35,500 3,600 Level FlightAware UK
02:22AM 53.9480 -0.4030 123° Southeast 483 556 37,000  Climbing FlightAware
02:23AM 53.9102 -0.3028 123° Southeast 500 575 35,500  Descending FlightAware UK
02:23AM 53.9000 -0.2790 123° Southeast 484 557 37,000  Climbing FlightAware
02:23AM 53.8592 -0.1684 123° Southeast 502 578 35,500  Descending FlightAware UK
02:24AM 53.8460 -0.1350 123° Southeast 482 555 37,000  Climbing FlightAware
02:24AM 53.8014 -0.0162 123° Southeast 500 575 35,500  Descending FlightAware UK
02:24AM 53.7990 -0.0120 123° Southeast 480 552 37,000  Climbing FlightAware
02:25AM 53.7577 0.0973 123° Southeast 498 573 35,500  Descending FlightAware UK
02:25AM 53.7610 0.0880 123° Southeast 478 550 37,000  Climbing FlightAware
02:25AM 53.7288 0.1723 123° Southeast 500 575 35,500 -2,400 Descending FlightAware UK
02:26AM 53.7072 0.2283 123° Southeast 498 573 35,500 3,000 Level FlightAware UK
02:26AM 53.6980 0.2500 123° Southeast 476 548 37,000  Climbing FlightAware
02:26AM 53.6495 0.3772 123° Southeast 500 575 35,500  Descending FlightAware UK
02:26AM 53.6470 0.3840 123° Southeast 476 548 37,000 -780 Climbing FlightAware
02:27AM 53.6204 0.4523 123° Southeast 502 578 35,200 -3,000 Descending FlightAware UK
02:27AM 53.5986 0.5081 123° Southeast 508 585 35,100 3,360 Descending FlightAware UK
02:27AM 53.5930 0.5210 123° Southeast 478 550 36,600 -720 Climbing FlightAware
02:28AM 53.5530 0.6178 123° Southeast 500 575 34,700 -600 Descending FlightAware UK
02:28AM 53.5420 0.6410 123° Southeast 473 544 36,200 -480 Climbing FlightAware
02:28AM 53.4972 0.7412 123° Southeast 500 575 34,400 -300 Descending FlightAware UK
02:28AM 53.4900 0.7550 123° Southeast 473 544 36,000 1,740 Climbing FlightAware
02:29AM 53.4320 0.8860 127° Southeast 467 537 36,000  Level FlightAware
02:30AM 53.3850 1.0040 124° Southeast 467 537 36,000 -1,260 Level FlightAware
02:30AM 53.3432 1.1186 124° Southeast 488 562 34,500  Descending FlightAware UK
02:31AM 53.3310 1.1480 124° Southeast 465 535 36,000  Climbing FlightAware
02:31AM 53.3089 1.2102 124° Southeast 488 562 34,500  Descending FlightAware UK
02:31AM 53.2910 1.2540 124° Southeast 465 535 36,000  Climbing FlightAware
02:32AM 53.2606 1.3378 124° Southeast 490 564 34,500  Descending FlightAware UK
02:32AM 53.2410 1.3910 124° Southeast 465 535 36,000  Climbing FlightAware
02:32AM 53.2127 1.4662 124° Southeast 486 559 34,500 -2,340 Descending FlightAware UK
02:33AM 53.1925 1.5204 122° Southeast 486 559 34,500 3,900 Level FlightAware UK
02:33AM 53.1910 1.5260 122° Southeast 467 537 36,000  Climbing FlightAware
02:33AM 53.1582 1.6137 122° Southeast 488 562 34,500 -180 Descending FlightAware UK
02:33AM 53.1510 1.6330 122° Southeast 468 539 35,900 -1,860 Climbing FlightAware
02:34AM 53.1176 1.7244 122° Southeast 484 557 33,400 -1,920 Descending FlightAware UK
02:34AM 53.0970 1.7870 122° Southeast 458 527 34,300 -1,860 Climbing FlightAware
02:34AM 53.0758 1.8537 122° Southeast 490 564 32,100 -4,680 Descending FlightAware UK
02:35AM 53.0606 1.9104 114° Southeast 476 548 31,500 3,000 Descending FlightAware UK
02:35AM 53.0630 1.8950 114° Southeast 446 513 33,200 2,160 Climbing FlightAware
02:35AM 53.0610 1.9080 104° East 457 526 32,200 -6,420 Descending FlightAware
02:35AM 53.0427 2.0339 104° East 476 548 29,800 -4,260 Descending FlightAware UK
02:36AM 53.0326 2.1171 101° East 470 541 29,300 2,100 Descending FlightAware UK
02:36AM 53.0330 2.1130 101° East 463 533 30,800 -1,800 Climbing FlightAware
02:36AM 53.0165 2.1931 101° East 464 534 28,600 -2,160 Descending FlightAware UK
02:37AM 53.0020 2.2760 101° East 435 501 29,000 -2,640 Climbing FlightAware
02:37AM 52.9893 2.3468 101° East 458 527 26,500 -5,340 Descending FlightAware UK
02:37AM 52.9792 2.4036 106° East 458 527 25,800 1,080 Descending FlightAware UK
02:37AM 52.9760 2.4220 106° East 424 488 27,000 -2,700 Climbing FlightAware
02:38AM 52.9588 2.5148 106° East 454 522 24,200 -2,400 Descending FlightAware UK
02:38AM 52.9550 2.5330 106° East 414 476 25,400 -2,040 Climbing FlightAware
02:38AM 52.9357 2.5985 106° East 442 509 23,200 -4,680 Descending FlightAware UK
02:39AM 52.9193 2.6441 121° Southeast 432 497 22,700 1,680 Descending FlightAware UK
02:39AM 52.9130 2.6610 121° Southeast 378 435 24,000 -1,680 Climbing FlightAware
02:39AM 52.8900 2.7359 121° Southeast 420 483 21,700 -1,200 Descending FlightAware UK
02:39AM 52.8920 2.7300 121° Southeast 374 430 23,300 -1,800 Climbing FlightAware
02:40AM 52.8715 2.7982 121° Southeast 416 479 21,000 -4,500 Descending FlightAware UK
02:40AM 52.8533 2.8603 116° Southeast 412 474 20,400 1,980 Descending FlightAware UK
02:40AM 52.8570 2.8490 116° Southeast 373 429 22,000 -1,680 Climbing FlightAware
02:41AM 52.8268 2.9526 116° Southeast 404 465 19,400 -1,740 Descending FlightAware UK
02:41AM 52.8210 2.9690 116° Southeast 363 418 20,700 -1,800 Climbing FlightAware
02:41AM 52.8048 3.0285 116° Southeast 394 453 18,500 -4,320 Descending FlightAware UK
02:42AM 52.7885 3.0861 115° Southeast 382 440 17,900 1,200 Descending FlightAware UK
02:42AM 52.7870 3.0920 115° Southeast 348 400 19,300 -1,680 Climbing FlightAware
02:42AM 52.7502 3.2179 115° Southeast 380 437 16,400 -1,800 Descending FlightAware UK
02:42AM 52.7590 3.1870 115° Southeast 356 410 18,100 1,020 Climbing FlightAware
02:43AM 52.7250 3.3030 116° Southeast 360 414 17,200 -1,380 Descending FlightAware
02:44AM 52.6980 3.3930 116° Southeast 364 419 16,300 -3,720 Descending FlightAware
02:44AM 52.6757 3.4711 116° Southeast 382 440 13,800 -4,620 Descending FlightAware UK
02:44AM 52.6620 3.5150 117° Southeast 378 435 13,400 2,880 Descending FlightAware UK
02:45AM 52.6640 3.5050 117° Southeast 347 399 15,000 -1,800 Climbing FlightAware
02:45AM 52.6460 3.5711 117° Southeast 368 423 12,700 -4,680 Descending FlightAware UK
02:45AM 52.6335 3.6122 116° Southeast 356 410 12,300 2,520 Descending FlightAware UK
02:45AM 52.6330 3.6110 116° Southeast 333 383 13,900 -2,340 Climbing FlightAware
02:46AM 52.6089 3.6932 116° Southeast 356 410 10,900 -2,160 Descending FlightAware UK
02:46AM 52.6030 3.7100 116° Southeast 329 379 12,300 -1,320 Climbing FlightAware
02:46AM 52.5795 3.7872 116° Southeast 336 387 10,000 -1,380 Descending FlightAware UK
02:47AM 52.5750 3.7980 116° Southeast 315 362 11,400 720 Climbing FlightAware
02:47AM 52.5500 3.8870 115° Southeast 292 336 10,700 -960 Descending FlightAware
02:48AM 52.5260 3.9660 117° Southeast 277 319 10,100 -1,080 Descending FlightAware
02:49AM 52.5120 4.0200 113° Southeast 272 313 9,500 -1,680 Descending FlightAware
02:49AM 52.5050 4.0510 110° East 276 318 9,000 -1,380 Descending FlightAware
02:49AM 52.4920 4.1070 111° Southeast 270 311 8,500 -3,360 Descending FlightAware
02:50AM 52.4789 4.1660 111° Southeast 1 1 6,200 -1,440 Descending FlightAware UK
02:50AM 52.4800 4.1560 111° Southeast 267 307 7,900 1,860 Climbing FlightAware
02:50AM 52.4680 4.2070 111° Southeast 263 303 7,300 -1,440 Descending FlightAware
02:51AM 52.4560 4.2570 111° Southeast 261 300 6,600 -1,680 Descending FlightAware
02:51AM 52.4480 4.2900 112° Southeast 264 304 6,200 -1,380 Descending FlightAware
02:51AM 52.4350 4.3400 113° Southeast 260 299 5,600 -1,440 Descending FlightAware
02:52AM 52.4180 4.3960 116° Southeast 256 295 4,800 -1,680 Descending FlightAware
02:52AM 52.4080 4.4070 146° Southeast 248 285 4,500 -1,200 Descending FlightAware
02:52AM 52.3930 4.4120 169° South 245 282 4,300 -1,200 Descending FlightAware
02:53AM 52.3550 4.4030 188° South 244 281 3,600 -1,140 Descending FlightAware
02:53AM 52.3260 4.3950 190° South 232 267 3,300 -480 Descending FlightAware
02:53AM 52.3090 4.3910 188° South 232 267 3,300  Level FlightAware
02:54AM 52.2740 4.3960 175° South 233 268 3,300  Level FlightAware
02:54AM 52.2600 4.4150 140° Southeast 187 215 3,300 -120 Level FlightAware
02:55AM 52.2410 4.4440 137° Southeast 179 206 3,200 -360 Descending FlightAware
02:55AM 52.2260 4.4650 139° Southeast 175 201 3,000 -480 Descending FlightAware
02:56AM 52.2140 4.4990 120° Southeast 177 204 2,800 -240 Descending FlightAware
02:56AM 52.2160 4.5380 85° East 175 201 2,800 -180 Level FlightAware
02:57AM 52.2210 4.5590 69° East 177 204 2,700 -300 Descending FlightAware
02:57AM 52.2320 4.5860 56° Northeast 175 201 2,600 -720 Descending FlightAware
02:57AM 52.2430 4.6160 59° Northeast 181 208 2,100 -1,020 Descending FlightAware
02:58AM 52.2570 4.6520 58° Northeast 166 191 1,600 -900 Descending FlightAware
02:58AM 52.2670 4.6790 59° Northeast 152 175 1,200 -900 Descending FlightAware
02:59AM 52.2770 4.7070 60° Northeast 142 163 800 -780 Descending FlightAware
02:59AM 52.2870 4.7310 56° Northeast 149 171 500 -420 Descending FlightAware
03:00AM 52.2930 4.7470 58° Northeast 148 170 500  Level FlightAware
03:02AM 52.3000 4.7500 125° Southeast  Level FlightAware Approximate
03:03AM 52.3086 4.7639 125° Southeast  Level Estimated
03:04AM 52.3086 4.7639 125° Southeast  Level Estimated
03:05AM 52.3086 4.7639 125° Southeast  Level Estimated
03:06AM 52.3086 4.7639 125° Southeast  Level Estimated
03:07AM 52.3086 4.7639 125° Southeast  Level Estimated
03:08AM 52.3086 4.7639 125° Southeast  Level Estimated
03:09AM 52.3086 4.7639 125° Southeast  Level Estimated
03:10AM 52.3086 4.7639 125° Southeast  Level Estimated
03:11AM 52.3086 4.7639 125° Southeast  Level Estimated
03:12AM 52.3086 4.7639 125° Southeast  Level Estimated